Time;durP1;ratioP1;P1;durP2;ratioP2;P2;SDS_P1;SDS_P2;PMS_P1;PMS_P2;Temp;Humidity;BMP_temperature;BMP_pressure;BME280_temperature;BME280_humidity;BME280_pressure;Samples;Min_cycle;Max_cycle;Signal;HPM_P1;HPM_P2
2022/01/07 00:00:02;;;;;;;16.57;8.50;;;0.50;18.60;;;;;;6389028;27;20384;-57
2022/01/07 00:03:05;;;;;;;9.67;8.33;;;0.20;19.60;;;;;;6385960;27;20240;-57
2022/01/07 00:06:09;;;;;;;11.97;8.10;;;0.50;19.70;;;;;;6390065;27;20737;-57
2022/01/07 00:09:12;;;;;;;14.43;9.20;;;0.40;19.70;;;;;;6389409;27;20612;-57
2022/01/07 00:12:18;;;;;;;10.67;8.50;;;0.30;19.40;;;;;;6389709;27;20354;-57
2022/01/07 00:15:21;;;;;;;12.90;7.87;;;0.50;18.90;;;;;;6364335;27;20227;-57
2022/01/07 00:18:24;;;;;;;9.93;8.00;;;0.30;19.00;;;;;;6382708;27;20321;-60
2022/01/07 00:21:28;;;;;;;12.37;8.10;;;0.30;18.40;;;;;;6389256;27;20230;-57
2022/01/07 00:24:31;;;;;;;13.93;8.37;;;0.40;18.50;;;;;;6376930;27;20226;-56
2022/01/07 00:27:34;;;;;;;11.33;7.63;;;0.50;18.20;;;;;;6389064;27;20719;-57
2022/01/07 00:30:37;;;;;;;9.73;8.33;;;0.50;18.40;;;;;;6377578;27;20303;-57
2022/01/07 00:33:40;;;;;;;9.53;8.13;;;0.50;18.10;;;;;;6363536;27;20273;-57
2022/01/07 00:36:43;;;;;;;9.13;7.17;;;0.10;18.70;;;;;;6363110;27;20742;-56
2022/01/07 00:39:47;;;;;;;15.13;7.67;;;0.60;18.50;;;;;;6363239;27;20749;-57
2022/01/07 00:42:51;;;;;;;10.80;7.63;;;0.40;17.00;;;;;;6364433;27;20232;-57
2022/01/07 00:45:53;;;;;;;11.10;7.47;;;0.50;17.70;;;;;;6364125;27;20708;-56
2022/01/07 00:48:56;;;;;;;11.63;7.60;;;0.40;17.40;;;;;;6386739;27;20242;-57
2022/01/07 00:52:01;;;;;;;16.73;8.27;;;0.50;17.20;;;;;;6387081;27;20234;-57
2022/01/07 00:55:05;;;;;;;11.43;8.00;;;0.30;17.40;;;;;;6389474;27;20254;-57
2022/01/07 00:58:07;;;;;;;11.23;8.20;;;0.40;17.70;;;;;;6377640;27;20377;-57
2022/01/07 01:01:10;;;;;;;10.90;7.40;;;0.50;18.10;;;;;;6372166;27;20260;-57
2022/01/07 01:04:13;;;;;;;14.33;8.20;;;0.40;18.00;;;;;;6388680;27;20235;-57
2022/01/07 01:07:17;;;;;;;14.47;8.47;;;0.40;18.20;;;;;;6380427;27;20313;-57
2022/01/07 01:10:22;;;;;;;11.23;7.63;;;0.40;18.00;;;;;;6388382;27;20606;-57
2022/01/07 01:13:26;;;;;;;8.87;7.83;;;0.30;18.10;;;;;;6387730;27;20663;-56
2022/01/07 01:16:28;;;;;;;11.83;8.00;;;0.50;18.00;;;;;;6386665;27;20778;-57
2022/01/07 01:19:31;;;;;;;15.67;8.07;;;0.30;17.80;;;;;;6386428;27;20231;-56
2022/01/07 01:22:36;;;;;;;11.33;8.17;;;0.30;19.10;;;;;;6385284;27;20242;-57
2022/01/07 01:25:38;;;;;;;13.27;7.97;;;0.20;19.40;;;;;;6372399;27;20555;-57
2022/01/07 01:28:41;;;;;;;17.43;8.70;;;0.30;19.60;;;;;;6361126;27;20778;-57
2022/01/07 01:31:44;;;;;;;12.80;8.47;;;0.30;19.70;;;;;;6360995;27;20333;-56
2022/01/07 01:34:47;;;;;;;15.80;9.87;;;0.00;19.80;;;;;;6360739;27;20351;-58
2022/01/07 01:37:51;;;;;;;17.03;8.60;;;0.10;19.80;;;;;;6333737;27;20322;-55
2022/01/07 01:40:54;;;;;;;14.03;8.80;;;0.20;20.50;;;;;;6375534;27;20231;-56
2022/01/07 01:43:57;;;;;;;12.43;8.70;;;0.30;20.90;;;;;;6385518;27;20241;-56
2022/01/07 01:47:00;;;;;;;14.07;9.13;;;0.20;20.60;;;;;;6378094;27;20271;-56
2022/01/07 01:50:05;;;;;;;16.27;10.10;;;0.00;21.30;;;;;;6384028;27;20443;-56
2022/01/07 01:53:09;;;;;;;15.17;8.67;;;-0.10;22.20;;;;;;6377343;27;20313;-56
2022/01/07 01:56:12;;;;;;;10.30;8.60;;;0.10;22.10;;;;;;6385266;27;20261;-57
2022/01/07 01:59:22;;;;;;;17.60;9.43;;;0.10;23.10;;;;;;6385586;27;20264;-56
2022/01/07 02:02:25;;;;;;;17.00;8.90;;;0.10;23.20;;;;;;6364668;27;20348;-56
2022/01/07 02:05:28;;;;;;;16.93;9.57;;;-0.10;23.10;;;;;;6359422;27;20308;-55
2022/01/07 02:08:32;;;;;;;13.00;10.10;;;0.10;24.10;;;;;;6359201;27;20319;-56
2022/01/07 02:11:36;;;;;;;15.53;9.83;;;0.00;22.80;;;;;;6359461;27;20627;-57
2022/01/07 02:14:38;;;;;;;13.13;9.60;;;0.10;22.90;;;;;;6359359;27;20265;-56
2022/01/07 02:17:42;;;;;;;19.80;10.17;;;0.00;22.70;;;;;;6371648;27;20235;-55
2022/01/07 02:20:47;;;;;;;21.17;10.33;;;0.00;23.20;;;;;;6382695;27;20356;-56
2022/01/07 02:23:49;;;;;;;14.23;9.87;;;0.00;23.60;;;;;;6386181;27;20300;-56
2022/01/07 02:26:53;;;;;;;18.40;10.03;;;0.10;24.50;;;;;;6384452;27;20241;-55
2022/01/07 02:29:57;;;;;;;14.23;10.30;;;-0.10;24.10;;;;;;6368672;27;20239;-56
2022/01/07 02:33:00;;;;;;;13.57;9.93;;;0.00;24.10;;;;;;6359913;27;20263;-56
2022/01/07 02:36:08;;;;;;;17.07;9.73;;;0.00;23.40;;;;;;6360145;27;20267;-57
2022/01/07 02:39:11;;;;;;;16.57;9.57;;;0.00;23.70;;;;;;6360050;27;20330;-57
2022/01/07 02:42:13;;;;;;;14.07;9.57;;;-0.10;23.70;;;;;;6360289;27;20239;-55
2022/01/07 02:45:17;;;;;;;14.37;9.40;;;-0.10;23.60;;;;;;6363570;27;20254;-56
2022/01/07 02:48:20;;;;;;;12.00;8.73;;;-0.40;24.20;;;;;;6367916;27;20730;-56
2022/01/07 02:51:24;;;;;;;18.20;9.40;;;-0.10;24.50;;;;;;6372757;27;20588;-57
2022/01/07 02:54:26;;;;;;;13.63;9.77;;;-0.10;24.50;;;;;;6374841;27;20231;-56
2022/01/07 02:57:29;;;;;;;15.63;9.63;;;-0.20;24.40;;;;;;6359090;27;20492;-56
2022/01/07 03:00:33;;;;;;;10.67;8.30;;;0.00;24.10;;;;;;6359524;27;20327;-56
2022/01/07 03:03:36;;;;;;;14.70;8.33;;;-0.10;24.50;;;;;;6358589;27;20253;-57
2022/01/07 03:06:41;;;;;;;15.93;9.30;;;0.00;23.40;;;;;;6369938;27;20453;-55
2022/01/07 03:09:43;;;;;;;11.17;8.83;;;-0.10;22.10;;;;;;6383686;27;20549;-55
2022/01/07 03:12:46;;;;;;;12.50;8.80;;;0.00;22.60;;;;;;6353693;27;20230;-55
2022/01/07 03:15:49;;;;;;;10.17;9.00;;;-0.30;23.30;;;;;;6383559;27;20226;-55
2022/01/07 03:18:53;;;;;;;9.63;8.63;;;0.00;24.20;;;;;;6377234;27;20242;-56
2022/01/07 03:21:57;;;;;;;9.43;8.43;;;-0.30;24.00;;;;;;6383695;27;20331;-56
2022/01/07 03:24:59;;;;;;;12.73;8.80;;;-0.10;23.80;;;;;;6375168;27;20306;-56
2022/01/07 03:28:02;;;;;;;14.10;9.13;;;-0.10;25.40;;;;;;6385257;27;20259;-57
2022/01/07 03:31:06;;;;;;;13.80;9.77;;;-0.20;24.10;;;;;;6388666;27;20236;-57
2022/01/07 03:34:09;;;;;;;11.67;9.17;;;-0.10;24.70;;;;;;6386972;27;20238;-57
2022/01/07 03:37:13;;;;;;;16.63;9.53;;;-0.10;25.50;;;;;;6387099;27;20371;-56
2022/01/07 03:40:17;;;;;;;15.83;9.97;;;-0.10;25.00;;;;;;6386681;27;20227;-56
2022/01/07 03:43:20;;;;;;;12.50;10.80;;;-0.20;25.40;;;;;;6366176;27;20618;-57
2022/01/07 03:46:23;;;;;;;10.43;9.00;;;-0.30;24.90;;;;;;6367972;27;20321;-56
2022/01/07 03:49:26;;;;;;;11.43;9.77;;;-0.20;25.40;;;;;;6385425;27;20231;-57
2022/01/07 03:52:30;;;;;;;13.97;9.90;;;-0.10;25.00;;;;;;6390204;27;20312;-56
2022/01/07 03:55:33;;;;;;;15.67;10.43;;;-0.20;24.80;;;;;;6364794;27;20312;-56
2022/01/07 03:58:36;;;;;;;14.60;10.80;;;-0.20;25.10;;;;;;6380492;27;20601;-56
2022/01/07 04:01:39;;;;;;;14.97;10.67;;;0.00;25.10;;;;;;6381659;27;20423;-56
2022/01/07 04:04:42;;;;;;;12.93;10.70;;;-0.20;24.80;;;;;;6362128;27;20239;-56
2022/01/07 04:07:46;;;;;;;13.87;10.27;;;0.10;24.40;;;;;;6362766;27;20249;-56
2022/01/07 04:10:48;;;;;;;16.00;10.60;;;0.00;24.70;;;;;;6362886;27;20544;-56
2022/01/07 04:13:51;;;;;;;12.90;11.23;;;-0.10;24.80;;;;;;6362247;27;20314;-55
2022/01/07 04:16:55;;;;;;;14.07;10.10;;;-0.20;24.80;;;;;;6368507;27;20246;-57
2022/01/07 04:19:58;;;;;;;15.50;10.90;;;-0.30;24.90;;;;;;6387753;27;20542;-57
2022/01/07 04:23:02;;;;;;;11.03;9.93;;;-0.20;25.00;;;;;;6386630;27;20715;-56
2022/01/07 04:26:05;;;;;;;13.43;10.93;;;-0.10;25.20;;;;;;6388344;27;20431;-56
2022/01/07 04:29:08;;;;;;;12.10;10.93;;;-0.20;25.60;;;;;;6384427;27;20227;-56
2022/01/07 04:32:11;;;;;;;16.57;11.07;;;-0.30;24.70;;;;;;6363278;27;20230;-57
2022/01/07 04:35:14;;;;;;;11.93;9.93;;;0.20;24.60;;;;;;6386625;27;20317;-57
2022/01/07 04:38:18;;;;;;;12.20;10.17;;;-0.10;24.60;;;;;;6375791;27;20243;-57
2022/01/07 04:41:20;;;;;;;11.40;10.20;;;0.10;24.80;;;;;;6386733;27;20227;-57
2022/01/07 04:44:23;;;;;;;11.50;10.33;;;0.00;24.60;;;;;;6379214;27;20767;-56
2022/01/07 04:47:26;;;;;;;16.20;10.43;;;0.10;24.40;;;;;;6387421;27;20231;-57
2022/01/07 04:50:30;;;;;;;14.90;10.37;;;-0.20;24.50;;;;;;6382714;27;20397;-57
2022/01/07 04:53:35;;;;;;;12.07;10.83;;;0.10;24.10;;;;;;6378578;27;20229;-57
2022/01/07 04:56:38;;;;;;;12.10;9.80;;;0.20;23.60;;;;;;6387192;27;20309;-56
2022/01/07 04:59:41;;;;;;;12.30;9.80;;;0.20;23.80;;;;;;6384378;27;20354;-57
2022/01/07 05:02:44;;;;;;;11.40;9.93;;;0.00;23.40;;;;;;6383376;27;20400;-56
2022/01/07 05:05:54;;;;;;;11.30;9.53;;;0.20;24.10;;;;;;6385713;27;20297;-57
2022/01/07 05:08:58;;;;;;;10.63;9.63;;;0.10;23.40;;;;;;6384896;27;20242;-56
2022/01/07 05:12:01;;;;;;;12.17;9.63;;;0.00;23.90;;;;;;6383267;27;20736;-57
2022/01/07 05:15:06;;;;;;;11.80;9.37;;;-0.20;23.80;;;;;;6376098;27;20565;-56
2022/01/07 05:18:09;;;;;;;12.10;9.40;;;0.10;23.50;;;;;;6384838;27;20238;-57
2022/01/07 05:21:13;;;;;;;10.47;9.47;;;0.20;24.00;;;;;;6383756;27;20309;-56
2022/01/07 05:24:17;;;;;;;14.07;9.80;;;0.10;23.80;;;;;;6380609;27;20244;-56
2022/01/07 05:27:20;;;;;;;12.23;8.77;;;0.00;22.50;;;;;;6385479;27;20376;-59
2022/01/07 05:30:23;;;;;;;11.87;8.77;;;0.00;23.00;;;;;;6385832;27;20614;-56
2022/01/07 05:33:26;;;;;;;13.67;9.03;;;0.10;22.40;;;;;;6379654;27;20222;-56
2022/01/07 05:36:29;;;;;;;11.23;8.60;;;0.30;21.50;;;;;;6385757;27;20223;-55
2022/01/07 05:39:33;;;;;;;11.67;9.13;;;0.00;21.60;;;;;;6385666;27;20230;-55
2022/01/07 05:42:36;;;;;;;10.93;9.27;;;0.40;21.10;;;;;;6380734;27;20234;-57
2022/01/07 05:45:40;;;;;;;9.10;8.30;;;0.20;20.80;;;;;;6385505;27;20313;-57
2022/01/07 05:48:44;;;;;;;10.60;8.33;;;-0.20;20.20;;;;;;6381547;27;20336;-56
2022/01/07 05:51:46;;;;;;;10.63;8.73;;;0.20;20.90;;;;;;6380650;27;20317;-56
2022/01/07 05:54:51;;;;;;;8.87;8.23;;;-0.10;20.60;;;;;;6380713;27;20322;-57
2022/01/07 05:57:54;;;;;;;11.37;8.07;;;0.00;20.40;;;;;;6384590;27;20296;-56
2022/01/07 06:00:56;;;;;;;8.27;7.57;;;0.30;19.70;;;;;;6374050;27;20510;-57
2022/01/07 06:03:59;;;;;;;12.87;8.77;;;0.20;19.50;;;;;;6384594;27;20253;-57
2022/01/07 06:07:03;;;;;;;9.80;7.90;;;0.10;19.50;;;;;;6382753;27;20379;-56
2022/01/07 06:10:09;;;;;;;11.80;7.70;;;0.10;19.60;;;;;;6377993;27;20725;-56
2022/01/07 06:13:11;;;;;;;9.73;8.20;;;0.40;19.80;;;;;;6383499;27;20826;-58
2022/01/07 06:16:14;;;;;;;9.00;8.23;;;0.30;19.60;;;;;;6381288;27;20231;-57
2022/01/07 06:19:17;;;;;;;10.77;8.07;;;0.00;19.00;;;;;;6382333;27;20522;-57
2022/01/07 06:22:20;;;;;;;10.83;8.07;;;0.50;18.60;;;;;;6382809;27;20504;-57
2022/01/07 06:25:24;;;;;;;13.17;7.90;;;0.40;18.30;;;;;;6382336;27;20750;-56
2022/01/07 06:28:26;;;;;;;11.70;8.73;;;0.40;18.40;;;;;;6383657;27;20566;-58
2022/01/07 06:31:29;;;;;;;11.67;8.27;;;0.10;18.90;;;;;;6383491;27;20395;-57
2022/01/07 06:34:32;;;;;;;7.87;7.20;;;0.10;18.70;;;;;;6378356;27;20231;-57
2022/01/07 06:37:35;;;;;;;11.43;8.20;;;0.10;18.40;;;;;;6383292;27;20249;-58
2022/01/07 06:40:39;;;;;;;9.73;7.93;;;0.10;17.90;;;;;;6383693;27;20334;-58
2022/01/07 06:43:43;;;;;;;8.77;7.83;;;0.30;17.80;;;;;;6376692;27;20664;-57
2022/01/07 06:46:46;;;;;;;9.60;7.30;;;0.40;18.40;;;;;;6381535;27;20760;-58
2022/01/07 06:49:49;;;;;;;13.00;7.57;;;0.40;18.10;;;;;;6382990;27;20334;-58
2022/01/07 06:52:52;;;;;;;12.47;7.83;;;0.50;18.30;;;;;;6383290;27;20230;-58
2022/01/07 06:55:56;;;;;;;10.03;7.20;;;0.50;18.40;;;;;;6383426;27;20227;-58
2022/01/07 06:58:58;;;;;;;9.43;7.33;;;0.60;18.20;;;;;;6365164;27;20238;-57
2022/01/07 07:02:01;;;;;;;9.60;8.07;;;0.50;16.60;;;;;;6379235;27;20270;-57
2022/01/07 07:05:05;;;;;;;8.63;7.50;;;0.40;17.00;;;;;;6379616;27;20748;-56
2022/01/07 07:08:07;;;;;;;9.07;7.53;;;0.60;17.60;;;;;;6381393;27;20798;-57
2022/01/07 07:11:11;;;;;;;11.53;8.70;;;0.60;16.90;;;;;;6379963;27;20241;-58
2022/01/07 07:14:15;;;;;;;8.20;7.60;;;0.70;17.30;;;;;;6377348;27;20326;-58
2022/01/07 07:17:18;;;;;;;8.87;7.87;;;0.40;16.80;;;;;;6382104;27;20275;-58
2022/01/07 07:20:21;;;;;;;8.90;8.00;;;0.80;17.00;;;;;;6381931;27;20291;-58
2022/01/07 07:23:24;;;;;;;8.70;7.80;;;0.60;16.70;;;;;;6384350;27;20314;-56
2022/01/07 07:26:28;;;;;;;8.90;8.00;;;0.80;15.70;;;;;;6383695;27;20351;-56
2022/01/07 07:29:30;;;;;;;8.77;7.63;;;0.60;15.90;;;;;;6380118;27;20244;-57
2022/01/07 07:32:34;;;;;;;10.10;7.93;;;0.80;15.20;;;;;;6382718;27;20715;-58
2022/01/07 07:39:00;;;;;;;9.47;7.60;;;0.70;14.20;;;;;;6378849;27;20641;-57
2022/01/07 07:42:05;;;;;;;8.53;7.57;;;0.90;13.40;;;;;;6381519;27;20238;-58
2022/01/07 07:45:09;;;;;;;15.97;9.13;;;0.90;13.90;;;;;;6382568;27;20604;-58
2022/01/07 07:48:12;;;;;;;10.60;8.23;;;1.00;13.30;;;;;;6380493;27;20275;-57
2022/01/07 07:51:15;;;;;;;9.47;8.50;;;0.90;13.30;;;;;;6381714;27;20508;-58
2022/01/07 07:54:18;;;;;;;8.30;7.53;;;0.80;12.10;;;;;;6382189;27;20658;-59
2022/01/07 07:57:22;;;;;;;13.13;8.30;;;1.00;12.20;;;;;;6367367;27;20302;-59
2022/01/07 08:00:25;;;;;;;12.37;8.07;;;1.20;11.20;;;;;;6380735;27;20279;-57
2022/01/07 08:03:28;;;;;;;8.37;7.57;;;0.80;11.10;;;;;;6382851;27;20384;-58
2022/01/07 08:06:31;;;;;;;10.27;8.10;;;0.90;11.20;;;;;;6374768;27;20227;-58
2022/01/07 08:09:38;;;;;;;10.67;8.80;;;1.10;11.70;;;;;;6383483;27;20381;-58
2022/01/07 08:13:03;;;;;;;10.30;8.10;;;0.90;10.80;;;;;;6382124;27;20285;-58
2022/01/07 08:16:06;;;;;;;8.93;8.03;;;1.10;10.40;;;;;;6380301;27;20223;-58
2022/01/07 08:19:09;;;;;;;8.50;7.60;;;1.00;10.30;;;;;;6387362;27;20420;-56
2022/01/07 08:22:12;;;;;;;10.90;8.50;;;1.00;10.40;;;;;;6375216;27;20299;-56
2022/01/07 08:25:15;;;;;;;8.97;8.00;;;0.90;10.60;;;;;;6384965;27;20309;-58
2022/01/07 08:28:22;;;;;;;8.20;7.60;;;1.00;11.10;;;;;;6381174;27;20235;-56
2022/01/07 08:34:53;;;;;;;8.67;7.83;;;0.90;10.40;;;;;;6386960;27;20226;-57
2022/01/07 08:34:54;;;;;;;11.70;7.83;;;1.20;10.60;;;;;;6382335;27;20805;-57
2022/01/07 08:37:57;;;;;;;12.60;9.00;;;1.10;10.40;;;;;;6385983;27;20491;-57
2022/01/07 08:41:00;;;;;;;14.87;8.73;;;1.30;9.90;;;;;;6385381;27;20250;-57
2022/01/07 08:44:05;;;;;;;14.23;8.70;;;1.60;9.60;;;;;;6380134;27;20347;-56
2022/01/07 08:47:08;;;;;;;12.17;8.07;;;1.30;9.10;;;;;;6383965;27;20401;-56
2022/01/07 08:50:11;;;;;;;10.13;7.97;;;1.40;9.00;;;;;;6379399;27;20445;-56
2022/01/07 08:53:13;;;;;;;11.17;7.27;;;1.20;9.40;;;;;;6381231;27;20452;-57
2022/01/07 08:56:17;;;;;;;15.57;8.30;;;1.30;10.50;;;;;;6384429;27;20241;-56
2022/01/07 08:59:21;;;;;;;9.77;8.07;;;1.20;10.40;;;;;;6385397;27;20321;-58
2022/01/07 09:02:24;;;;;;;10.87;8.20;;;1.70;10.90;;;;;;6384839;27;20226;-58
2022/01/07 09:05:27;;;;;;;8.10;7.40;;;1.50;10.00;;;;;;6381013;27;20242;-56
2022/01/07 09:08:31;;;;;;;15.77;8.90;;;1.40;10.20;;;;;;6385016;27;20246;-56
2022/01/07 09:11:33;;;;;;;11.93;8.80;;;1.60;9.40;;;;;;6376373;27;20247;-56
2022/01/07 09:14:37;;;;;;;15.90;8.00;;;1.50;9.90;;;;;;6380145;27;20318;-58
2022/01/07 09:17:42;;;;;;;13.10;8.10;;;1.60;8.30;;;;;;6381582;27;20307;-56
2022/01/07 09:20:46;;;;;;;13.80;8.67;;;1.90;8.80;;;;;;6385309;27;20231;-57
2022/01/07 09:23:49;;;;;;;9.63;8.67;;;1.80;8.90;;;;;;6387039;27;20353;-57
2022/01/07 09:26:51;;;;;;;11.53;9.20;;;2.00;7.90;;;;;;6386417;27;20241;-58
2022/01/07 09:29:55;;;;;;;9.53;8.10;;;1.80;6.90;;;;;;6383398;27;20527;-57
2022/01/07 09:32:58;;;;;;;9.67;8.67;;;2.00;7.30;;;;;;6385297;27;20322;-57
2022/01/07 09:36:01;;;;;;;12.57;9.30;;;2.00;7.10;;;;;;6380801;27;20254;-56
2022/01/07 09:39:04;;;;;;;13.20;9.47;;;2.30;7.10;;;;;;6385339;27;20238;-56
2022/01/07 09:42:08;;;;;;;13.47;8.53;;;2.10;5.90;;;;;;6385907;27;20329;-57
2022/01/07 09:45:13;;;;;;;10.80;8.90;;;2.30;5.10;;;;;;6381921;27;20749;-57
2022/01/07 09:48:15;;;;;;;12.43;8.63;;;2.10;4.90;;;;;;6385619;27;20737;-57
2022/01/07 09:51:18;;;;;;;11.73;8.67;;;2.40;5.10;;;;;;6382288;27;20619;-58
2022/01/07 09:54:21;;;;;;;11.93;9.57;;;2.50;5.20;;;;;;6382957;27;20383;-56
2022/01/07 09:57:23;;;;;;;14.60;8.20;;;2.20;5.00;;;;;;6386117;27;20241;-56
2022/01/07 10:00:33;;;;;;;11.93;8.97;;;2.60;4.50;;;;;;6386657;27;20238;-58
2022/01/07 10:03:41;;;;;;;15.60;9.00;;;2.90;3.70;;;;;;6380946;27;20586;-57
2022/01/07 10:06:43;;;;;;;14.83;8.67;;;2.80;1.20;;;;;;6383823;27;20231;-58
2022/01/07 10:10:06;;;;;;;9.40;8.47;;;2.80;2.10;;;;;;6385658;27;20821;-57
2022/01/07 10:13:09;;;;;;;9.53;8.47;;;2.70;1.20;;;;;;6381607;27;20300;-56
2022/01/07 10:16:18;;;;;;;9.30;8.50;;;2.70;1.30;;;;;;6384102;27;20253;-58
2022/01/07 10:19:31;;;;;;;11.90;8.47;;;3.10;1.00;;;;;;6384559;27;20241;-57
2022/01/07 10:22:49;;;;;;;11.33;10.10;;;3.00;1.00;;;;;;6387001;27;20400;-56
2022/01/07 10:25:54;;;;;;;11.63;8.60;;;3.30;1.00;;;;;;6383200;27;20246;-57
2022/01/07 10:28:57;;;;;;;10.33;8.60;;;3.30;1.00;;;;;;6383720;27;20247;-56
2022/01/07 10:32:20;;;;;;;9.50;8.57;;;3.40;1.00;;;;;;6385019;27;20310;-57
2022/01/07 10:35:24;;;;;;;13.93;8.53;;;3.40;1.00;;;;;;6382839;27;20234;-58
2022/01/07 10:38:28;;;;;;;10.57;8.17;;;3.50;1.00;;;;;;6379204;27;20860;-58
2022/01/07 10:41:31;;;;;;;10.50;7.67;;;3.60;1.00;;;;;;6385778;27;20229;-59
2022/01/07 10:44:58;;;;;;;10.53;7.97;;;3.70;1.00;;;;;;6385597;27;20272;-57
2022/01/07 10:48:02;;;;;;;11.30;8.07;;;3.50;1.00;;;;;;6366608;27;20676;-57
2022/01/07 10:51:07;;;;;;;8.37;7.57;;;3.50;1.00;;;;;;6368107;27;20741;-57
2022/01/07 10:54:11;;;;;;;11.10;7.60;;;3.60;1.00;;;;;;6365522;27;20417;-57
2022/01/07 10:57:14;;;;;;;9.53;7.73;;;3.80;1.00;;;;;;6365527;27;20890;-57
2022/01/07 11:00:18;;;;;;;8.67;7.53;;;3.70;1.00;;;;;;6360171;27;20246;-57
2022/01/07 11:03:23;;;;;;;11.40;7.30;;;3.60;1.00;;;;;;6364514;27;20227;-57
2022/01/07 11:06:29;;;;;;;8.53;7.13;;;3.50;1.00;;;;;;6352641;27;20247;-57
2022/01/07 11:09:32;;;;;;;8.30;7.37;;;3.80;1.00;;;;;;6370859;27;20699;-57
2022/01/07 11:12:36;;;;;;;11.37;8.57;;;3.70;1.00;;;;;;6361562;27;20318;-57
2022/01/07 11:15:39;;;;;;;10.13;7.20;;;3.80;1.00;;;;;;6352590;27;20247;-57
2022/01/07 11:18:45;;;;;;;7.63;7.03;;;3.70;1.00;;;;;;6369930;27;20501;-60
2022/01/07 11:21:51;;;;;;;9.67;7.67;;;3.70;1.00;;;;;;6360498;27;20356;-57
2022/01/07 11:25:07;;;;;;;12.53;8.13;;;3.90;1.00;;;;;;6368068;27;20717;-57
2022/01/07 11:28:18;;;;;;;10.13;7.57;;;3.90;1.00;;;;;;6374105;27;20237;-57
2022/01/07 11:31:20;;;;;;;8.40;7.70;;;3.70;1.00;;;;;;6384823;27;20231;-57
2022/01/07 11:34:27;;;;;;;9.63;7.57;;;3.80;1.00;;;;;;6382674;27;20230;-57
2022/01/07 11:37:36;;;;;;;13.17;8.50;;;3.50;1.00;;;;;;6385001;27;20234;-57
2022/01/07 11:40:46;;;;;;;10.77;7.40;;;3.80;1.00;;;;;;6383719;27;20820;-57
2022/01/07 11:43:50;;;;;;;12.57;8.07;;;3.70;1.00;;;;;;6360872;27;20295;-57
2022/01/07 11:47:23;;;;;;;14.53;8.13;;;3.80;1.00;;;;;;6366381;27;20742;-57
2022/01/07 11:50:28;;;;;;;9.77;7.80;;;3.60;1.00;;;;;;6353480;27;20371;-56
2022/01/07 11:54:05;;;;;;;11.53;7.77;;;3.60;1.00;;;;;;6352024;27;20764;-57
2022/01/07 11:57:11;;;;;;;10.30;8.13;;;3.90;1.00;;;;;;6375361;27;20314;-56
2022/01/07 12:00:14;;;;;;;10.73;9.10;;;3.70;1.00;;;;;;6386684;27;20256;-59
2022/01/07 12:03:31;;;;;;;10.67;8.43;;;3.60;1.00;;;;;;6370879;27;20853;-57
2022/01/07 12:06:50;;;;;;;8.93;8.13;;;3.30;1.00;;;;;;6387380;27;20356;-57
2022/01/07 12:10:11;;;;;;;10.03;9.03;;;3.40;2.30;;;;;;6388472;27;20257;-57
2022/01/07 12:13:13;;;;;;;11.33;8.97;;;3.40;3.60;;;;;;6384722;27;20260;-57
2022/01/07 12:16:19;;;;;;;9.60;8.40;;;3.40;3.30;;;;;;6382018;27;20722;-57
2022/01/07 12:20:07;;;;;;;11.87;8.10;;;3.50;3.10;;;;;;6388009;27;20234;-58
2022/01/07 12:23:19;;;;;;;14.00;8.87;;;3.70;2.30;;;;;;6379950;27;20472;-56
2022/01/07 12:26:25;;;;;;;11.37;8.93;;;3.70;2.90;;;;;;6353467;27;20396;-57
2022/01/07 12:29:31;;;;;;;11.60;8.50;;;3.60;4.00;;;;;;6374005;27;20596;-57
2022/01/07 12:32:36;;;;;;;11.00;8.87;;;3.40;4.10;;;;;;6362132;27;20421;-57
2022/01/07 12:35:40;;;;;;;9.30;8.37;;;3.40;2.80;;;;;;6355086;27;20226;-57
2022/01/07 12:38:58;;;;;;;10.47;8.90;;;3.60;4.20;;;;;;6359186;27;21148;-57
2022/01/07 12:42:01;;;;;;;10.03;8.00;;;3.50;4.40;;;;;;6361375;27;20322;-56
2022/01/07 12:45:05;;;;;;;10.70;8.57;;;3.50;5.00;;;;;;6358460;27;20314;-56
2022/01/07 12:48:08;;;;;;;14.07;9.37;;;3.70;6.30;;;;;;6351564;27;20246;-56
2022/01/07 12:51:11;;;;;;;11.60;9.60;;;3.30;7.60;;;;;;6372052;27;20508;-57
2022/01/07 12:54:15;;;;;;;14.33;9.13;;;3.40;8.40;;;;;;6362623;27;20251;-57
2022/01/07 12:57:28;;;;;;;10.10;8.70;;;2.90;10.80;;;;;;6361264;27;20231;-57
2022/01/07 13:00:32;;;;;;;9.13;8.13;;;3.40;12.30;;;;;;6359181;27;20257;-57
2022/01/07 13:03:35;;;;;;;10.13;9.10;;;3.30;13.20;;;;;;6358857;27;20400;-58
2022/01/07 13:06:40;;;;;;;9.63;8.67;;;3.50;16.40;;;;;;6349746;27;20356;-57
2022/01/07 13:09:44;;;;;;;14.50;10.13;;;3.30;16.60;;;;;;6363748;27;20327;-58
2022/01/07 13:12:58;;;;;;;10.73;9.50;;;3.20;17.80;;;;;;6365474;27;20618;-57
2022/01/07 13:16:03;;;;;;;12.83;9.73;;;3.10;18.80;;;;;;6385444;27;20678;-58
2022/01/07 13:19:08;;;;;;;12.17;9.27;;;3.40;19.40;;;;;;6386476;27;20235;-58
2022/01/07 13:22:11;;;;;;;10.70;8.90;;;3.30;18.30;;;;;;6386064;27;20360;-57
2022/01/07 13:25:15;;;;;;;10.63;9.57;;;3.50;18.80;;;;;;6384168;27;20234;-57
2022/01/07 13:28:30;;;;;;;10.97;9.27;;;2.80;18.40;;;;;;6389020;27;20821;-57
2022/01/07 13:31:34;;;;;;;10.73;9.63;;;3.20;19.50;;;;;;6383956;27;20255;-62
2022/01/07 13:34:40;;;;;;;11.07;9.67;;;3.40;19.50;;;;;;6380399;27;20314;-57
2022/01/07 13:37:45;;;;;;;12.57;9.40;;;2.90;20.50;;;;;;6386535;27;20226;-57
2022/01/07 13:40:50;;;;;;;13.63;9.67;;;3.30;21.80;;;;;;6373283;27;20320;-57
2022/01/07 13:43:53;;;;;;;13.07;9.67;;;3.10;22.00;;;;;;6383662;27;20227;-57
2022/01/07 13:46:58;;;;;;;12.10;10.00;;;3.40;22.20;;;;;;6385833;27;20238;-57
2022/01/07 13:50:09;;;;;;;11.70;10.50;;;3.10;21.60;;;;;;6386175;27;20238;-56
2022/01/07 13:53:13;;;;;;;14.17;10.23;;;3.20;23.80;;;;;;6385777;27;20306;-58
2022/01/07 13:56:20;;;;;;;15.17;9.90;;;2.90;25.70;;;;;;6382286;27;20779;-65
2022/01/07 13:59:23;;;;;;;11.43;10.33;;;2.80;25.20;;;;;;6384322;27;20230;-57
2022/01/07 14:02:28;;;;;;;14.37;10.40;;;3.00;27.50;;;;;;6386052;27;20464;-57
2022/01/07 14:05:31;;;;;;;15.80;10.83;;;2.60;28.30;;;;;;6370938;27;21158;-58
2022/01/07 14:08:34;;;;;;;10.93;9.73;;;2.70;29.10;;;;;;6380729;27;20363;-57
2022/01/07 14:11:38;;;;;;;16.60;10.13;;;2.90;29.10;;;;;;6378128;27;20309;-58
2022/01/07 14:14:42;;;;;;;12.60;9.93;;;3.00;29.90;;;;;;6384919;27;20226;-57
2022/01/07 14:17:47;;;;;;;12.60;10.87;;;2.90;29.40;;;;;;6381553;27;20227;-56
2022/01/07 14:20:51;;;;;;;12.77;9.53;;;2.70;30.10;;;;;;6383382;27;20248;-56
2022/01/07 14:23:55;;;;;;;10.70;9.43;;;2.90;30.80;;;;;;6383842;27;20287;-58
2022/01/07 14:27:06;;;;;;;12.80;10.63;;;2.70;30.10;;;;;;6377319;27;20235;-58
2022/01/07 14:30:10;;;;;;;14.83;11.27;;;2.80;32.60;;;;;;6383063;27;20374;-56
2022/01/07 14:33:13;;;;;;;14.43;11.47;;;2.60;33.40;;;;;;6377125;27;20691;-58
2022/01/07 14:36:17;;;;;;;16.67;11.87;;;2.70;34.60;;;;;;6384958;27;20328;-57
2022/01/07 14:39:19;;;;;;;11.27;9.90;;;2.80;34.80;;;;;;6383433;27;20301;-56
2022/01/07 14:42:24;;;;;;;16.57;11.03;;;2.70;35.00;;;;;;6382266;27;20654;-54
2022/01/07 14:45:27;;;;;;;12.50;10.70;;;2.50;35.10;;;;;;6384513;27;20331;-58
2022/01/07 14:48:29;;;;;;;13.70;10.40;;;2.50;35.40;;;;;;6382701;27;20265;-56
2022/01/07 14:51:32;;;;;;;12.00;10.73;;;2.50;35.50;;;;;;6381131;27;20225;-57
2022/01/07 14:54:35;;;;;;;13.50;11.13;;;2.70;35.50;;;;;;6383728;27;20317;-56
2022/01/07 14:57:40;;;;;;;13.50;10.97;;;2.50;36.10;;;;;;6383593;27;20257;-56
2022/01/07 15:00:47;;;;;;;11.20;10.17;;;2.50;36.90;;;;;;6379457;27;20219;-57
2022/01/07 15:03:50;;;;;;;16.23;11.60;;;2.50;37.00;;;;;;6380525;27;20382;-57
2022/01/07 15:06:53;;;;;;;15.43;11.97;;;2.50;36.20;;;;;;6379565;27;20339;-56
2022/01/07 15:09:55;;;;;;;14.37;12.50;;;2.30;37.80;;;;;;6383211;27;20275;-58
2022/01/07 15:12:59;;;;;;;16.13;13.60;;;2.40;38.70;;;;;;6383920;27;20622;-56
2022/01/07 15:19:24;;;;;;;14.27;12.37;;;2.50;39.50;;;;;;6380064;27;20644;-57
2022/01/07 15:22:27;;;;;;;13.53;12.00;;;2.40;39.70;;;;;;6383897;27;20255;-58
2022/01/07 15:25:29;;;;;;;17.57;13.47;;;2.20;40.70;;;;;;6382086;27;20895;-58
2022/01/07 15:28:34;;;;;;;16.70;13.23;;;2.30;41.00;;;;;;6382375;27;20582;-58
2022/01/07 15:31:38;;;;;;;13.10;11.77;;;2.10;40.90;;;;;;6384182;27;20231;-56
2022/01/07 15:34:40;;;;;;;40.97;23.70;;;2.10;41.90;;;;;;6379542;27;20222;-58
2022/01/07 15:37:43;;;;;;;16.03;12.53;;;2.40;42.10;;;;;;6383599;27;20282;-56
2022/01/07 15:40:46;;;;;;;15.10;12.73;;;2.50;41.80;;;;;;6383077;27;20427;-57
2022/01/07 15:43:50;;;;;;;13.93;12.40;;;2.30;41.50;;;;;;6379480;27;20313;-58
2022/01/07 15:46:53;;;;;;;15.57;12.60;;;2.50;41.60;;;;;;6384532;27;20231;-56
2022/01/07 15:49:56;;;;;;;14.00;12.53;;;2.70;41.70;;;;;;6382550;27;20235;-56
2022/01/07 15:52:59;;;;;;;15.23;12.50;;;2.30;40.50;;;;;;6383898;27;20955;-56
2022/01/07 15:56:02;;;;;;;13.73;12.57;;;2.50;40.40;;;;;;6382618;27;20242;-58
2022/01/07 15:59:06;;;;;;;14.37;12.63;;;2.70;40.40;;;;;;6384240;27;20623;-56
2022/01/07 16:02:09;;;;;;;16.77;12.93;;;2.30;40.70;;;;;;6384066;27;20317;-56
2022/01/07 16:05:12;;;;;;;13.03;11.87;;;2.40;40.80;;;;;;6382968;27;20227;-57
2022/01/07 16:08:15;;;;;;;13.97;12.40;;;2.40;41.20;;;;;;6386898;27;20325;-57